Terminal Aerodrome Forecast
Issued by NWS Grand Forks, ND

Home | Current Version | Previous Version | Text Only | Print | Product List | Glossary Off
Versions: 1 2 3 4 5 6 7 8 9 10 11 12 13 14 15 16

735
FTUS43 KFGF 290520
TAFFAR
TAF
KFAR 290520Z 2906/3006 16010KT P6SM SCT080
     FM291100 VRB06KT 5SM BR SCT200
     FM291900 34011KT P6SM SCT200=

USA.gov is the U.S. government's official web portal to all federal, state and local government web resources and services.